Etusivu
METAR-TAF:

METAR-TAF

Lentoasemat :

Storm Lake Municipal Airport

Storm Lake, Iowa, Yhdysvallat

Leveyspiiri: 42-36N, Pituuspiiri: 095-14W, korkeus merenpinnasta: 454 m

Tämänhetkinen sää

Tämä raportti tehtiin 15 minuuttia sitten, kello 21.55 UTC
Tuuli 16 kn etelästä
Lämpötila 10°C
Kosteus 46%
Ilmanpaine 1013 hPa
Näkyvyys: 16.1 km
selkeää

METAR: KSLB 162155Z AUTO 17016KT 10SM CLR 10/M01 A2990 RMK AO2

Aika: 16:10 (22:10 UTC)


TAF: puuttuu

Säähavainnot ja -ennusteet yli 4000 lentoasemalta (METAR- ja TAF-raportit).

Käytössä olevat sääasemat on merkitty karttaan keltaisilla ja punaisilla pisteillä.

Aseta hiiri pisteen päälle nähdäksesi sääaseman nimen.

Klikkaa sitten nähdäksesi säähavainnot ja -ennusteet.

Kartan vaihtaminen: klikkaa mustalla rastilla varustettuja vihreitä pisteitä, niin voit zoomata sisään; viivalla varustettua vihreää pistettä, niin voit zoomata ulos tai vihreitä nuolia, niin pääset viereisille kartoille.


METAR-TAF: